createdAt,value
2022-10-07T00:03:41.959Z,11.70
2022-10-07T00:10:24.243Z,7.45
2022-10-07T00:17:06.560Z,8.98
2022-10-07T00:23:48.890Z,10.38
2022-10-07T00:30:31.369Z,6.07
2022-10-07T00:37:13.890Z,7.65
2022-10-07T00:43:59.662Z,9.63
2022-10-07T00:50:42.958Z,6.68
2022-10-07T00:57:29.504Z,6.40
2022-10-07T01:04:13.411Z,8.25
2022-10-07T01:11:19.197Z,8.32
2022-10-07T01:18:26.123Z,10.32
2022-10-07T01:25:32.447Z,11.13
2022-10-07T01:32:26.186Z,8.60
2022-10-07T01:39:14.070Z,7.95
2022-10-07T01:45:56.988Z,10.75
2022-10-07T01:53:00.531Z,8.93
2022-10-07T02:00:06.647Z,7.65
2022-10-07T02:07:12.303Z,10.27
2022-10-07T02:13:58.588Z,7.93
2022-10-07T02:20:48.372Z,8.43
2022-10-07T02:27:35.032Z,8.05
2022-10-07T02:34:20.953Z,6.35
2022-10-07T02:41:07.378Z,8.20
2022-10-07T02:47:55.696Z,8.55
2022-10-07T02:54:43.911Z,7.60
2022-10-07T03:01:30.655Z,11.38
2022-10-07T03:08:13.316Z,10.13
2022-10-07T03:14:58.265Z,10.45
2022-10-07T03:21:41.216Z,9.40
2022-10-07T03:28:26.486Z,10.20
2022-10-07T03:35:10.734Z,7.20
2022-10-07T03:41:53.876Z,9.25
2022-10-07T03:48:36.494Z,12.57
2022-10-07T03:55:19.555Z,8.68
2022-10-07T04:02:02.265Z,7.47
2022-10-07T04:08:45.051Z,7.60
2022-10-07T04:15:28.589Z,8.30
2022-10-07T04:22:11.303Z,10.48
2022-10-07T04:28:53.732Z,5.88
2022-10-07T04:35:40.108Z,5.18
2022-10-07T04:42:41.723Z,9.63
2022-10-07T04:49:25.163Z,8.02
2022-10-07T04:56:11.196Z,11.40
2022-10-07T05:02:53.619Z,12.95
2022-10-07T05:09:36.983Z,11.52
2022-10-07T05:16:19.673Z,9.88
2022-10-07T05:23:02.264Z,10.68
2022-10-07T05:29:44.858Z,10.63
2022-10-07T05:36:27.391Z,7.60
2022-10-07T05:43:13.738Z,8.00
2022-10-07T05:49:58.387Z,10.93
2022-10-07T05:56:40.945Z,11.23
2022-10-07T06:03:28.490Z,7.75
2022-10-07T06:10:31.182Z,8.02
2022-10-07T06:17:13.671Z,7.38
2022-10-07T06:24:00.466Z,8.20
2022-10-07T06:30:49.349Z,9.65
2022-10-07T06:37:32.711Z,13.00
2022-10-07T06:44:15.800Z,15.35
2022-10-07T06:51:04.135Z,9.73
2022-10-07T06:57:48.458Z,11.50
2022-10-07T07:04:34.665Z,7.55
2022-10-07T07:11:36.813Z,10.32
2022-10-07T07:18:26.796Z,11.35
2022-10-07T07:25:12.571Z,9.70
2022-10-07T07:31:55.505Z,7.60
2022-10-07T07:38:40.832Z,13.95
2022-10-07T07:45:24.914Z,12.00
2022-10-07T07:52:07.765Z,8.60
2022-10-07T07:58:56.207Z,8.68
2022-10-07T08:05:38.774Z,8.35
2022-10-07T08:12:23.351Z,8.95
2022-10-07T08:19:07.599Z,9.93
2022-10-07T08:25:55.268Z,8.82
2022-10-07T08:32:37.765Z,10.77
2022-10-07T08:39:20.091Z,8.20
2022-10-07T08:46:04.301Z,8.30
2022-10-07T08:53:02.977Z,6.60
2022-10-07T08:59:51.172Z,9.45
2022-10-07T09:06:38.672Z,4.95
2022-10-07T09:13:24.848Z,8.50
2022-10-07T09:20:26.181Z,6.80
2022-10-07T09:27:15.842Z,6.97
2022-10-07T09:33:58.218Z,5.72
2022-10-07T09:41:02.907Z,6.38
2022-10-07T09:47:55.378Z,9.63
2022-10-07T09:54:37.927Z,8.18
2022-10-07T10:01:21.050Z,8.77
2022-10-07T10:08:14.026Z,6.38
2022-10-07T10:14:59.556Z,6.30
2022-10-07T10:21:42.238Z,8.43
2022-10-07T10:28:49.753Z,5.70
2022-10-07T10:35:39.408Z,9.38
2022-10-07T10:42:32.482Z,6.18
2022-10-07T10:49:43.439Z,6.93
2022-10-07T10:56:48.038Z,8.98
2022-10-07T11:03:39.332Z,8.48
2022-10-07T11:10:25.558Z,7.95
2022-10-07T11:17:11.567Z,6.13
2022-10-07T11:24:05.976Z,7.05
2022-10-07T11:31:15.685Z,9.13
2022-10-07T11:38:00.789Z,8.48
2022-10-07T11:44:54.475Z,8.68
2022-10-07T11:51:45.735Z,10.95
2022-10-07T11:58:38.771Z,8.52
2022-10-07T12:05:36.254Z,9.25
2022-10-07T12:12:23.409Z,7.55
2022-10-07T12:19:10.372Z,6.70
2022-10-07T12:26:13.013Z,7.05
2022-10-07T12:32:56.946Z,10.25
2022-10-07T12:39:42.368Z,8.93
2022-10-07T12:46:29.159Z,8.02
2022-10-07T12:53:12.399Z,5.88
2022-10-07T13:00:02.040Z,6.07
2022-10-07T13:07:17.898Z,8.52
2022-10-07T13:14:20.123Z,4.68
2022-10-07T13:21:25.384Z,7.32
2022-10-07T13:28:13.694Z,10.27
2022-10-07T13:34:57.915Z,8.73
2022-10-07T13:41:44.671Z,5.45
2022-10-07T13:48:34.446Z,6.93
2022-10-07T13:55:33.725Z,5.22
2022-10-07T14:02:16.776Z,7.28
2022-10-07T14:08:59.468Z,6.93
2022-10-07T14:15:51.928Z,6.40
2022-10-07T14:22:41.110Z,9.13
2022-10-07T14:29:35.443Z,9.57
2022-10-07T14:36:20.731Z,7.18
2022-10-07T14:43:04.519Z,5.40
2022-10-07T14:49:47.938Z,8.35
2022-10-07T14:56:32.790Z,7.95
2022-10-07T15:03:15.359Z,8.25
2022-10-07T15:09:57.714Z,8.20
2022-10-07T15:16:41.758Z,8.38
2022-10-07T15:23:24.263Z,8.13
2022-10-07T15:30:07.528Z,7.07
2022-10-07T15:36:50.195Z,8.73
2022-10-07T15:43:34.127Z,6.20
2022-10-07T15:50:16.641Z,8.93
2022-10-07T15:56:58.979Z,7.55
2022-10-07T16:03:47.896Z,7.63
2022-10-07T16:10:30.424Z,6.70
2022-10-07T16:17:13.228Z,7.63
2022-10-07T16:24:01.828Z,8.13
2022-10-07T16:30:49.900Z,5.28
2022-10-07T16:37:34.210Z,7.70
2022-10-07T16:44:16.568Z,8.38
2022-10-07T16:50:59.335Z,6.50
2022-10-07T16:57:41.632Z,9.80
2022-10-07T17:04:25.181Z,7.30
2022-10-07T17:11:31.456Z,10.07
2022-10-07T17:18:15.298Z,7.43
2022-10-07T17:24:58.066Z,10.13
2022-10-07T17:31:43.157Z,7.85
2022-10-07T17:38:33.809Z,7.18
2022-10-07T17:45:16.176Z,7.45
2022-10-07T17:51:58.508Z,9.35
2022-10-07T17:58:43.017Z,8.68
2022-10-07T18:05:26.349Z,10.93
2022-10-07T18:12:27.269Z,9.20
2022-10-07T18:19:09.767Z,8.73
2022-10-07T18:25:52.099Z,8.05
2022-10-07T18:32:34.659Z,8.45
2022-10-07T18:39:16.968Z,8.38
2022-10-07T18:46:08.047Z,8.55
2022-10-07T18:52:50.522Z,11.93
2022-10-07T18:59:32.869Z,9.70
2022-10-07T19:06:20.775Z,8.90
2022-10-07T19:13:21.538Z,11.05
2022-10-07T19:20:04.724Z,10.77
2022-10-07T19:26:49.873Z,11.40
2022-10-07T19:33:34.045Z,12.57
2022-10-07T19:40:16.471Z,10.10
2022-10-07T19:47:00.664Z,12.50
2022-10-07T19:53:47.009Z,10.88
2022-10-07T20:00:30.873Z,14.27
2022-10-07T20:07:13.306Z,10.48
2022-10-07T20:13:55.702Z,12.98
2022-10-07T20:20:38.002Z,11.30
2022-10-07T20:27:21.542Z,12.35
2022-10-07T20:34:05.719Z,12.70
2022-10-07T20:41:11.244Z,12.35
2022-10-07T20:47:55.798Z,12.25
2022-10-07T20:54:38.151Z,13.93
2022-10-07T21:01:20.523Z,15.18
2022-10-07T21:08:02.981Z,13.52
2022-10-07T21:14:48.065Z,16.20
2022-10-07T21:21:30.831Z,18.35
2022-10-07T21:28:14.539Z,14.77
2022-10-07T21:34:57.344Z,15.50
2022-10-07T21:41:40.680Z,13.18
2022-10-07T21:48:23.027Z,15.55
2022-10-07T21:55:05.563Z,13.70
2022-10-07T22:01:48.301Z,16.17
2022-10-07T22:08:36.415Z,20.98
2022-10-07T22:15:19.980Z,16.27
2022-10-07T22:22:02.295Z,20.90
2022-10-07T22:28:46.659Z,21.38
2022-10-07T22:35:30.505Z,21.60
2022-10-07T22:42:12.945Z,18.40
2022-10-07T22:48:57.775Z,16.48
2022-10-07T22:55:40.291Z,17.00
2022-10-07T23:02:22.917Z,17.20
2022-10-07T23:09:05.623Z,16.02
2022-10-07T23:16:02.661Z,17.48
2022-10-07T23:22:45.520Z,19.52
2022-10-07T23:29:29.881Z,15.68
2022-10-07T23:36:12.264Z,17.33
2022-10-07T23:42:54.914Z,17.27
2022-10-07T23:49:37.246Z,15.60
2022-10-07T23:56:19.978Z,18.17
